Brandon, SD

7:29 AM CDT on September 21, 2014 (GMT -0500)
East Sioux Falls | Change Station
CLOSE
Current Station
Personal Weather Station
Location: Sioux Falls, SD
Elevation: 1473 ft
Nearby Weather Stations

Elev 1473 ft 43.55 °N, 96.66 °W | Updated 24 seconds ago

Clear
Clear
49.5 °F
Feels Like 50 °F
N
0.0
Wind Variable Wind from NNE
Gusts 0.0 mph

Today
High -- | Low -- °F
--% Chance of Precip.
Yesterday
High -- | Low -- °F
Precip. -- in
7:12 AM 7:25 PM
Waning Crescent, 7% visible
Pressure 30.15 in
Visibility 10.0 miles
Clouds Clear
Windchill 50 °F
Dew Point 45 °F
Humidity 85%
Rainfall 0.00 in
Snow Depth 0 in
UV 0.0 out of 12
Pollen 5.50 out of 12
Air Quality Not available.
Flu Activity Not available.
METAR KFSD 211156Z 30009KT 10SM CLR 10/06 A3015 RMK AO2 SLP210 T01000061 10139 20100 53022

More Conditions Fewer Conditions

Pressure 30.15 in
Visibility 10.0 miles
Clouds Clear
Windchill 50 °F
Dew Point 45 °F
Humidity 85%
Rainfall 0.00 in
Snow Depth 0 in
UV 0.0 out of 12
Pollen 5.50 out of 12
Air Quality Not available.
Flu Activity Not available.
METAR KFSD 211156Z 30009KT 10SM CLR 10/06 A3015 RMK AO2 SLP210 T01000061 10139 20100 53022

More Conditions Fewer Conditions

10-Day Weather Forecast

Almanac

Astronomy

Sep. 21, 2014 Rise Set
Actual Time 7:12 AM CDT 7:25 PM CDT
Civil Twilight 6:43 AM CDT 7:54 PM CDT
Nautical Twilight 6:10 AM CDT 8:27 PM CDT
Astronomical Twilight 5:35 AM CDT 9:01 PM CDT
Moon 4:43 AM CDT 6:04 PM CDT
Length of Visible Light 13h 10m
Length of Day
12h 12m
Tomorrow will be 2m 57s shorter.
Waning Crescent, 7% of the Moon is Illuminated
Today
Waning Crescent
Sep 24
New
Oct 1
First Quarter
Oct 8
Full
Oct 15
Last Quarter

Today's Extremes

State Highs State Lows

Community

WunderPhotos

Upload Photos

1,755,126 photos uploaded!

Nearby

Snow Depth

Station Depth Elevation
Blind Park 0 in 6890 ft

Earthquake Activity

City Distance Mag. Time & Date
No recent earthquake activity has been reported nearby.
Minimum magnitude displayed is 2.5.

Coastal Water Temperatures

Place Temperature
No Stations Reporting

Nearby Weather Stations